sensor_id;sensor_type;location;lat;lon;timestamp;P1;durP1;ratioP1;P2;durP2;ratioP2
22677;SDS011;26259;50.214;18.620;2022-07-29T00:00:37;13.50;;;7.03;;
22677;SDS011;26259;50.214;18.620;2022-07-29T00:03:02;9.97;;;6.40;;
22677;SDS011;26259;50.214;18.620;2022-07-29T00:05:28;10.87;;;7.33;;
22677;SDS011;26259;50.214;18.620;2022-07-29T00:07:54;13.13;;;7.43;;
22677;SDS011;26259;50.214;18.620;2022-07-29T00:10:19;11.97;;;7.00;;
22677;SDS011;26259;50.214;18.620;2022-07-29T00:12:45;13.87;;;6.87;;
22677;SDS011;26259;50.214;18.620;2022-07-29T00:15:11;11.00;;;6.90;;
22677;SDS011;26259;50.214;18.620;2022-07-29T00:17:37;13.33;;;7.03;;
22677;SDS011;26259;50.214;18.620;2022-07-29T00:20:03;13.40;;;7.33;;
22677;SDS011;26259;50.214;18.620;2022-07-29T00:22:29;13.27;;;6.90;;
22677;SDS011;26259;50.214;18.620;2022-07-29T00:24:55;11.77;;;6.03;;
22677;SDS011;26259;50.214;18.620;2022-07-29T00:27:20;13.37;;;7.20;;
22677;SDS011;26259;50.214;18.620;2022-07-29T00:29:46;13.07;;;6.63;;
22677;SDS011;26259;50.214;18.620;2022-07-29T00:32:12;11.30;;;6.90;;
22677;SDS011;26259;50.214;18.620;2022-07-29T00:34:37;11.90;;;7.13;;
22677;SDS011;26259;50.214;18.620;2022-07-29T00:37:22;14.93;;;6.33;;
22677;SDS011;26259;50.214;18.620;2022-07-29T00:39:48;14.87;;;7.20;;
22677;SDS011;26259;50.214;18.620;2022-07-29T00:42:13;13.87;;;7.30;;
22677;SDS011;26259;50.214;18.620;2022-07-29T00:44:39;11.07;;;6.77;;
22677;SDS011;26259;50.214;18.620;2022-07-29T00:47:06;12.77;;;6.97;;
22677;SDS011;26259;50.214;18.620;2022-07-29T00:49:33;12.53;;;6.27;;
22677;SDS011;26259;50.214;18.620;2022-07-29T00:52:00;13.17;;;6.57;;
22677;SDS011;26259;50.214;18.620;2022-07-29T00:54:27;11.17;;;6.30;;
22677;SDS011;26259;50.214;18.620;2022-07-29T00:56:54;11.83;;;6.67;;
22677;SDS011;26259;50.214;18.620;2022-07-29T00:59:21;14.00;;;6.83;;
22677;SDS011;26259;50.214;18.620;2022-07-29T01:01:46;11.83;;;6.13;;
22677;SDS011;26259;50.214;18.620;2022-07-29T01:04:12;9.77;;;5.73;;
22677;SDS011;26259;50.214;18.620;2022-07-29T01:06:38;14.07;;;5.63;;
22677;SDS011;26259;50.214;18.620;2022-07-29T01:09:03;11.30;;;5.77;;
22677;SDS011;26259;50.214;18.620;2022-07-29T01:11:29;11.57;;;6.10;;
22677;SDS011;26259;50.214;18.620;2022-07-29T01:13:55;9.27;;;5.60;;
22677;SDS011;26259;50.214;18.620;2022-07-29T01:16:27;10.87;;;5.63;;
22677;SDS011;26259;50.214;18.620;2022-07-29T01:18:59;8.70;;;5.43;;
22677;SDS011;26259;50.214;18.620;2022-07-29T01:21:50;11.70;;;5.90;;
22677;SDS011;26259;50.214;18.620;2022-07-29T01:29:29;11.17;;;5.10;;
22677;SDS011;26259;50.214;18.620;2022-07-29T01:32:02;11.10;;;5.10;;
22677;SDS011;26259;50.214;18.620;2022-07-29T01:34:52;10.87;;;4.80;;
22677;SDS011;26259;50.214;18.620;2022-07-29T01:37:20;10.37;;;4.97;;
22677;SDS011;26259;50.214;18.620;2022-07-29T01:40:05;9.37;;;4.40;;
22677;SDS011;26259;50.214;18.620;2022-07-29T01:42:41;10.63;;;4.63;;
22677;SDS011;26259;50.214;18.620;2022-07-29T01:45:14;8.27;;;4.57;;
22677;SDS011;26259;50.214;18.620;2022-07-29T01:47:44;9.43;;;4.07;;
22677;SDS011;26259;50.214;18.620;2022-07-29T01:50:19;8.43;;;4.67;;
22677;SDS011;26259;50.214;18.620;2022-07-29T01:55:34;12.87;;;4.37;;
22677;SDS011;26259;50.214;18.620;2022-07-29T01:58:05;8.80;;;3.87;;
22677;SDS011;26259;50.214;18.620;2022-07-29T02:00:32;8.20;;;4.20;;
22677;SDS011;26259;50.214;18.620;2022-07-29T02:03:00;8.70;;;4.43;;
22677;SDS011;26259;50.214;18.620;2022-07-29T02:05:28;10.67;;;4.00;;
22677;SDS011;26259;50.214;18.620;2022-07-29T02:07:55;7.07;;;4.03;;
22677;SDS011;26259;50.214;18.620;2022-07-29T02:10:25;6.90;;;3.90;;
22677;SDS011;26259;50.214;18.620;2022-07-29T02:12:54;8.10;;;4.67;;
22677;SDS011;26259;50.214;18.620;2022-07-29T02:15:21;10.53;;;5.03;;
22677;SDS011;26259;50.214;18.620;2022-07-29T02:17:56;10.33;;;4.47;;
22677;SDS011;26259;50.214;18.620;2022-07-29T02:20:33;6.37;;;4.07;;
22677;SDS011;26259;50.214;18.620;2022-07-29T02:22:59;8.50;;;4.30;;
22677;SDS011;26259;50.214;18.620;2022-07-29T02:25:27;7.57;;;3.87;;
22677;SDS011;26259;50.214;18.620;2022-07-29T02:27:54;11.60;;;4.37;;
22677;SDS011;26259;50.214;18.620;2022-07-29T02:30:21;5.00;;;3.70;;
22677;SDS011;26259;50.214;18.620;2022-07-29T02:32:48;6.53;;;4.10;;
22677;SDS011;26259;50.214;18.620;2022-07-29T02:35:15;9.50;;;3.63;;
22677;SDS011;26259;50.214;18.620;2022-07-29T02:37:42;5.60;;;3.60;;
22677;SDS011;26259;50.214;18.620;2022-07-29T02:40:10;6.07;;;4.10;;
22677;SDS011;26259;50.214;18.620;2022-07-29T02:42:38;4.40;;;3.87;;
22677;SDS011;26259;50.214;18.620;2022-07-29T02:45:06;5.43;;;3.43;;
22677;SDS011;26259;50.214;18.620;2022-07-29T02:47:45;5.77;;;3.67;;
22677;SDS011;26259;50.214;18.620;2022-07-29T02:50:18;8.97;;;3.47;;
22677;SDS011;26259;50.214;18.620;2022-07-29T02:52:52;6.77;;;3.57;;
22677;SDS011;26259;50.214;18.620;2022-07-29T02:55:24;6.90;;;3.67;;
22677;SDS011;26259;50.214;18.620;2022-07-29T02:57:56;9.33;;;4.00;;
22677;SDS011;26259;50.214;18.620;2022-07-29T03:00:27;7.50;;;3.70;;
22677;SDS011;26259;50.214;18.620;2022-07-29T03:02:58;5.33;;;3.23;;
22677;SDS011;26259;50.214;18.620;2022-07-29T03:05:26;7.57;;;3.53;;
22677;SDS011;26259;50.214;18.620;2022-07-29T03:07:55;11.17;;;3.00;;
22677;SDS011;26259;50.214;18.620;2022-07-29T03:10:23;4.17;;;2.70;;
22677;SDS011;26259;50.214;18.620;2022-07-29T03:12:50;7.73;;;2.90;;
22677;SDS011;26259;50.214;18.620;2022-07-29T03:15:16;4.80;;;2.93;;
22677;SDS011;26259;50.214;18.620;2022-07-29T03:17:43;6.50;;;2.90;;
22677;SDS011;26259;50.214;18.620;2022-07-29T03:20:10;3.70;;;2.50;;
22677;SDS011;26259;50.214;18.620;2022-07-29T03:22:41;4.97;;;2.30;;
22677;SDS011;26259;50.214;18.620;2022-07-29T03:25:14;4.17;;;2.50;;
22677;SDS011;26259;50.214;18.620;2022-07-29T03:27:40;6.57;;;2.43;;
22677;SDS011;26259;50.214;18.620;2022-07-29T03:30:07;7.53;;;2.30;;
22677;SDS011;26259;50.214;18.620;2022-07-29T03:32:34;9.97;;;2.60;;
22677;SDS011;26259;50.214;18.620;2022-07-29T03:35:00;4.60;;;2.50;;
22677;SDS011;26259;50.214;18.620;2022-07-29T03:37:26;4.60;;;2.30;;
22677;SDS011;26259;50.214;18.620;2022-07-29T03:39:52;6.07;;;2.50;;
22677;SDS011;26259;50.214;18.620;2022-07-29T03:42:20;4.97;;;1.97;;
22677;SDS011;26259;50.214;18.620;2022-07-29T03:44:49;5.03;;;2.00;;
22677;SDS011;26259;50.214;18.620;2022-07-29T03:47:17;5.33;;;2.50;;
22677;SDS011;26259;50.214;18.620;2022-07-29T03:49:47;3.63;;;2.03;;
22677;SDS011;26259;50.214;18.620;2022-07-29T03:52:15;3.97;;;2.10;;
22677;SDS011;26259;50.214;18.620;2022-07-29T03:54:41;3.47;;;2.47;;
22677;SDS011;26259;50.214;18.620;2022-07-29T03:57:07;2.63;;;1.80;;
22677;SDS011;26259;50.214;18.620;2022-07-29T03:59:36;5.43;;;2.30;;
22677;SDS011;26259;50.214;18.620;2022-07-29T04:02:03;5.70;;;2.30;;
22677;SDS011;26259;50.214;18.620;2022-07-29T04:04:34;3.33;;;1.90;;
22677;SDS011;26259;50.214;18.620;2022-07-29T04:07:00;7.07;;;2.03;;
22677;SDS011;26259;50.214;18.620;2022-07-29T04:09:26;4.03;;;1.77;;
22677;SDS011;26259;50.214;18.620;2022-07-29T04:11:51;6.10;;;2.30;;
22677;SDS011;26259;50.214;18.620;2022-07-29T04:14:18;5.53;;;2.23;;
22677;SDS011;26259;50.214;18.620;2022-07-29T04:16:43;3.33;;;1.97;;
22677;SDS011;26259;50.214;18.620;2022-07-29T04:19:09;6.77;;;2.17;;
22677;SDS011;26259;50.214;18.620;2022-07-29T04:21:38;4.07;;;2.50;;
22677;SDS011;26259;50.214;18.620;2022-07-29T04:24:04;4.00;;;2.13;;
22677;SDS011;26259;50.214;18.620;2022-07-29T04:26:30;3.37;;;2.20;;
22677;SDS011;26259;50.214;18.620;2022-07-29T04:28:55;7.47;;;1.90;;
22677;SDS011;26259;50.214;18.620;2022-07-29T04:31:21;4.67;;;2.07;;
22677;SDS011;26259;50.214;18.620;2022-07-29T04:33:46;4.93;;;2.17;;
22677;SDS011;26259;50.214;18.620;2022-07-29T04:36:12;5.37;;;1.70;;
22677;SDS011;26259;50.214;18.620;2022-07-29T04:38:38;3.43;;;2.17;;
22677;SDS011;26259;50.214;18.620;2022-07-29T04:41:03;6.40;;;1.60;;
22677;SDS011;26259;50.214;18.620;2022-07-29T04:43:30;3.67;;;2.07;;
22677;SDS011;26259;50.214;18.620;2022-07-29T04:45:55;6.80;;;2.50;;
22677;SDS011;26259;50.214;18.620;2022-07-29T04:48:21;5.47;;;1.93;;
22677;SDS011;26259;50.214;18.620;2022-07-29T04:50:46;7.10;;;2.40;;
22677;SDS011;26259;50.214;18.620;2022-07-29T04:53:12;7.20;;;2.03;;
22677;SDS011;26259;50.214;18.620;2022-07-29T04:55:38;6.10;;;1.90;;
22677;SDS011;26259;50.214;18.620;2022-07-29T04:58:03;6.07;;;1.80;;
22677;SDS011;26259;50.214;18.620;2022-07-29T05:00:29;4.50;;;1.60;;
22677;SDS011;26259;50.214;18.620;2022-07-29T05:02:54;3.87;;;1.73;;
22677;SDS011;26259;50.214;18.620;2022-07-29T05:05:20;8.17;;;2.20;;
22677;SDS011;26259;50.214;18.620;2022-07-29T05:07:45;9.57;;;2.27;;
22677;SDS011;26259;50.214;18.620;2022-07-29T05:10:11;5.20;;;1.57;;
22677;SDS011;26259;50.214;18.620;2022-07-29T05:12:36;5.70;;;1.90;;
22677;SDS011;26259;50.214;18.620;2022-07-29T05:15:02;6.33;;;2.03;;
22677;SDS011;26259;50.214;18.620;2022-07-29T05:17:28;6.73;;;2.10;;
22677;SDS011;26259;50.214;18.620;2022-07-29T05:19:54;4.47;;;1.80;;
22677;SDS011;26259;50.214;18.620;2022-07-29T05:22:19;4.90;;;1.87;;
22677;SDS011;26259;50.214;18.620;2022-07-29T05:24:45;8.30;;;2.43;;
22677;SDS011;26259;50.214;18.620;2022-07-29T05:27:11;6.37;;;1.73;;
22677;SDS011;26259;50.214;18.620;2022-07-29T05:29:37;7.00;;;2.00;;
22677;SDS011;26259;50.214;18.620;2022-07-29T05:32:03;8.40;;;2.20;;
22677;SDS011;26259;50.214;18.620;2022-07-29T05:34:29;6.50;;;2.33;;
22677;SDS011;26259;50.214;18.620;2022-07-29T05:36:55;9.20;;;2.10;;
22677;SDS011;26259;50.214;18.620;2022-07-29T05:39:21;8.17;;;2.37;;
22677;SDS011;26259;50.214;18.620;2022-07-29T05:41:47;4.90;;;1.93;;
22677;SDS011;26259;50.214;18.620;2022-07-29T05:44:13;12.47;;;2.40;;
22677;SDS011;26259;50.214;18.620;2022-07-29T05:46:38;9.53;;;2.47;;
22677;SDS011;26259;50.214;18.620;2022-07-29T05:49:04;6.60;;;1.93;;
22677;SDS011;26259;50.214;18.620;2022-07-29T05:51:31;6.93;;;2.30;;
22677;SDS011;26259;50.214;18.620;2022-07-29T05:53:57;4.53;;;2.10;;
22677;SDS011;26259;50.214;18.620;2022-07-29T05:56:23;6.73;;;2.17;;
22677;SDS011;26259;50.214;18.620;2022-07-29T05:58:49;6.27;;;2.10;;
22677;SDS011;26259;50.214;18.620;2022-07-29T06:01:15;11.20;;;2.20;;
22677;SDS011;26259;50.214;18.620;2022-07-29T06:03:41;12.83;;;2.93;;
22677;SDS011;26259;50.214;18.620;2022-07-29T06:06:07;7.23;;;2.17;;
22677;SDS011;26259;50.214;18.620;2022-07-29T06:08:33;5.63;;;2.83;;
22677;SDS011;26259;50.214;18.620;2022-07-29T06:11:00;3.57;;;1.90;;
22677;SDS011;26259;50.214;18.620;2022-07-29T06:13:25;5.73;;;1.90;;
22677;SDS011;26259;50.214;18.620;2022-07-29T06:15:51;6.93;;;2.33;;
22677;SDS011;26259;50.214;18.620;2022-07-29T06:18:16;4.17;;;2.03;;
22677;SDS011;26259;50.214;18.620;2022-07-29T06:20:42;5.87;;;2.33;;
22677;SDS011;26259;50.214;18.620;2022-07-29T06:23:08;4.53;;;2.27;;
22677;SDS011;26259;50.214;18.620;2022-07-29T06:25:34;3.60;;;2.10;;
22677;SDS011;26259;50.214;18.620;2022-07-29T06:28:01;4.70;;;2.50;;
22677;SDS011;26259;50.214;18.620;2022-07-29T06:30:27;5.30;;;2.47;;
22677;SDS011;26259;50.214;18.620;2022-07-29T06:32:53;13.13;;;2.70;;
22677;SDS011;26259;50.214;18.620;2022-07-29T06:35:19;7.50;;;2.20;;
22677;SDS011;26259;50.214;18.620;2022-07-29T06:37:45;4.93;;;2.20;;
22677;SDS011;26259;50.214;18.620;2022-07-29T06:40:11;8.37;;;2.43;;
22677;SDS011;26259;50.214;18.620;2022-07-29T06:42:55;10.07;;;2.50;;
22677;SDS011;26259;50.214;18.620;2022-07-29T06:45:20;10.53;;;3.10;;
22677;SDS011;26259;50.214;18.620;2022-07-29T06:47:46;7.97;;;3.43;;
22677;SDS011;26259;50.214;18.620;2022-07-29T06:50:11;9.90;;;2.63;;
22677;SDS011;26259;50.214;18.620;2022-07-29T06:52:38;6.60;;;2.43;;
22677;SDS011;26259;50.214;18.620;2022-07-29T06:55:04;9.70;;;2.10;;
22677;SDS011;26259;50.214;18.620;2022-07-29T06:57:30;6.07;;;2.53;;
22677;SDS011;26259;50.214;18.620;2022-07-29T06:59:56;6.40;;;2.77;;
22677;SDS011;26259;50.214;18.620;2022-07-29T07:02:21;5.90;;;2.53;;
22677;SDS011;26259;50.214;18.620;2022-07-29T07:04:47;6.10;;;2.63;;
22677;SDS011;26259;50.214;18.620;2022-07-29T07:07:13;3.73;;;2.37;;
22677;SDS011;26259;50.214;18.620;2022-07-29T07:09:38;8.83;;;3.10;;
22677;SDS011;26259;50.214;18.620;2022-07-29T07:12:04;6.30;;;2.50;;
22677;SDS011;26259;50.214;18.620;2022-07-29T07:14:30;7.07;;;2.40;;
22677;SDS011;26259;50.214;18.620;2022-07-29T07:16:56;9.87;;;2.30;;
22677;SDS011;26259;50.214;18.620;2022-07-29T07:19:22;6.53;;;2.50;;
22677;SDS011;26259;50.214;18.620;2022-07-29T07:21:47;5.80;;;2.67;;
22677;SDS011;26259;50.214;18.620;2022-07-29T07:24:13;6.00;;;2.60;;
22677;SDS011;26259;50.214;18.620;2022-07-29T07:26:38;7.50;;;2.43;;
22677;SDS011;26259;50.214;18.620;2022-07-29T07:29:05;10.07;;;3.33;;
22677;SDS011;26259;50.214;18.620;2022-07-29T07:31:30;5.50;;;2.57;;
22677;SDS011;26259;50.214;18.620;2022-07-29T07:33:56;6.65;;;2.35;;
22677;SDS011;26259;50.214;18.620;2022-07-29T07:36:22;13.40;;;2.78;;
22677;SDS011;26259;50.214;18.620;2022-07-29T07:38:48;4.65;;;2.40;;
22677;SDS011;26259;50.214;18.620;2022-07-29T07:41:13;8.95;;;2.38;;
22677;SDS011;26259;50.214;18.620;2022-07-29T07:43:39;8.47;;;3.10;;
22677;SDS011;26259;50.214;18.620;2022-07-29T07:46:05;5.82;;;2.60;;
22677;SDS011;26259;50.214;18.620;2022-07-29T07:48:30;7.78;;;2.50;;
22677;SDS011;26259;50.214;18.620;2022-07-29T07:50:56;5.77;;;2.87;;
22677;SDS011;26259;50.214;18.620;2022-07-29T07:53:22;10.53;;;3.13;;
22677;SDS011;26259;50.214;18.620;2022-07-29T07:55:47;4.20;;;2.87;;
22677;SDS011;26259;50.214;18.620;2022-07-29T07:58:13;6.60;;;3.37;;
22677;SDS011;26259;50.214;18.620;2022-07-29T08:00:38;7.13;;;2.80;;
22677;SDS011;26259;50.214;18.620;2022-07-29T08:03:04;6.57;;;2.93;;
22677;SDS011;26259;50.214;18.620;2022-07-29T08:05:29;8.68;;;3.03;;
22677;SDS011;26259;50.214;18.620;2022-07-29T08:07:55;10.10;;;3.30;;
22677;SDS011;26259;50.214;18.620;2022-07-29T08:10:21;9.07;;;2.90;;
22677;SDS011;26259;50.214;18.620;2022-07-29T08:13:05;4.82;;;3.10;;
22677;SDS011;26259;50.214;18.620;2022-07-29T08:15:32;5.27;;;2.93;;
22677;SDS011;26259;50.214;18.620;2022-07-29T08:17:58;6.47;;;3.00;;
22677;SDS011;26259;50.214;18.620;2022-07-29T08:20:24;10.05;;;3.13;;
22677;SDS011;26259;50.214;18.620;2022-07-29T08:22:50;10.07;;;3.23;;
22677;SDS011;26259;50.214;18.620;2022-07-29T08:25:16;5.85;;;2.90;;
22677;SDS011;26259;50.214;18.620;2022-07-29T08:27:45;8.52;;;2.92;;
22677;SDS011;26259;50.214;18.620;2022-07-29T08:30:13;5.32;;;2.97;;
22677;SDS011;26259;50.214;18.620;2022-07-29T08:32:39;6.97;;;3.30;;
22677;SDS011;26259;50.214;18.620;2022-07-29T08:35:05;3.55;;;2.60;;
22677;SDS011;26259;50.214;18.620;2022-07-29T08:37:30;4.65;;;3.13;;
22677;SDS011;26259;50.214;18.620;2022-07-29T08:39:56;5.47;;;3.03;;
22677;SDS011;26259;50.214;18.620;2022-07-29T08:42:22;6.22;;;2.70;;
22677;SDS011;26259;50.214;18.620;2022-07-29T08:44:47;11.15;;;3.38;;
22677;SDS011;26259;50.214;18.620;2022-07-29T08:47:14;5.38;;;2.97;;
22677;SDS011;26259;50.214;18.620;2022-07-29T08:49:40;7.65;;;3.00;;
22677;SDS011;26259;50.214;18.620;2022-07-29T08:52:05;5.72;;;3.38;;
22677;SDS011;26259;50.214;18.620;2022-07-29T08:54:32;7.85;;;2.90;;
22677;SDS011;26259;50.214;18.620;2022-07-29T08:56:58;12.05;;;3.08;;
22677;SDS011;26259;50.214;18.620;2022-07-29T08:59:26;4.15;;;2.85;;
22677;SDS011;26259;50.214;18.620;2022-07-29T09:01:53;8.10;;;2.70;;
22677;SDS011;26259;50.214;18.620;2022-07-29T09:04:19;9.32;;;3.83;;
22677;SDS011;26259;50.214;18.620;2022-07-29T09:06:49;6.55;;;3.05;;
22677;SDS011;26259;50.214;18.620;2022-07-29T09:09:18;12.45;;;3.17;;
22677;SDS011;26259;50.214;18.620;2022-07-29T09:11:43;4.63;;;2.83;;
22677;SDS011;26259;50.214;18.620;2022-07-29T09:14:10;6.63;;;2.88;;
22677;SDS011;26259;50.214;18.620;2022-07-29T09:16:44;5.57;;;2.78;;
22677;SDS011;26259;50.214;18.620;2022-07-29T09:19:19;3.58;;;2.60;;
22677;SDS011;26259;50.214;18.620;2022-07-29T09:21:50;4.00;;;2.58;;
22677;SDS011;26259;50.214;18.620;2022-07-29T09:24:46;5.75;;;3.40;;
22677;SDS011;26259;50.214;18.620;2022-07-29T09:29:46;6.43;;;3.40;;
22677;SDS011;26259;50.214;18.620;2022-07-29T09:32:11;5.28;;;2.67;;
22677;SDS011;26259;50.214;18.620;2022-07-29T09:34:37;6.85;;;2.55;;
22677;SDS011;26259;50.214;18.620;2022-07-29T09:37:03;5.45;;;2.75;;
22677;SDS011;26259;50.214;18.620;2022-07-29T09:41:57;16.10;;;4.05;;
22677;SDS011;26259;50.214;18.620;2022-07-29T09:44:24;6.25;;;2.72;;
22677;SDS011;26259;50.214;18.620;2022-07-29T09:46:58;5.28;;;2.90;;
22677;SDS011;26259;50.214;18.620;2022-07-29T09:49:34;4.55;;;3.00;;
22677;SDS011;26259;50.214;18.620;2022-07-29T09:52:08;4.43;;;3.25;;
22677;SDS011;26259;50.214;18.620;2022-07-29T09:54:35;10.63;;;3.00;;
22677;SDS011;26259;50.214;18.620;2022-07-29T09:57:07;7.85;;;2.97;;
22677;SDS011;26259;50.214;18.620;2022-07-29T09:59:37;4.28;;;2.50;;
22677;SDS011;26259;50.214;18.620;2022-07-29T10:02:13;5.68;;;3.28;;
22677;SDS011;26259;50.214;18.620;2022-07-29T10:04:39;3.80;;;2.80;;
22677;SDS011;26259;50.214;18.620;2022-07-29T10:07:07;8.40;;;3.22;;
22677;SDS011;26259;50.214;18.620;2022-07-29T10:09:33;8.00;;;3.10;;
22677;SDS011;26259;50.214;18.620;2022-07-29T10:12:06;5.50;;;2.83;;
22677;SDS011;26259;50.214;18.620;2022-07-29T10:14:34;9.40;;;2.63;;
22677;SDS011;26259;50.214;18.620;2022-07-29T10:17:00;8.57;;;3.20;;
22677;SDS011;26259;50.214;18.620;2022-07-29T10:19:30;7.38;;;2.97;;
22677;SDS011;26259;50.214;18.620;2022-07-29T10:21:57;10.63;;;3.35;;
22677;SDS011;26259;50.214;18.620;2022-07-29T10:24:27;7.45;;;3.00;;
22677;SDS011;26259;50.214;18.620;2022-07-29T10:26:54;8.52;;;3.05;;
22677;SDS011;26259;50.214;18.620;2022-07-29T10:29:22;8.10;;;2.97;;
22677;SDS011;26259;50.214;18.620;2022-07-29T10:31:51;3.17;;;2.83;;
22677;SDS011;26259;50.214;18.620;2022-07-29T10:37:27;6.35;;;3.10;;
22677;SDS011;26259;50.214;18.620;2022-07-29T10:43:41;6.03;;;2.70;;
22677;SDS011;26259;50.214;18.620;2022-07-29T10:46:09;7.68;;;3.15;;
22677;SDS011;26259;50.214;18.620;2022-07-29T11:05:04;5.13;;;2.67;;
22677;SDS011;26259;50.214;18.620;2022-07-29T11:07:33;4.78;;;3.17;;
22677;SDS011;26259;50.214;18.620;2022-07-29T11:10:21;5.47;;;2.75;;
22677;SDS011;26259;50.214;18.620;2022-07-29T11:12:46;7.30;;;3.28;;
22677;SDS011;26259;50.214;18.620;2022-07-29T11:15:13;6.50;;;3.35;;
22677;SDS011;26259;50.214;18.620;2022-07-29T11:22:56;6.55;;;2.95;;
22677;SDS011;26259;50.214;18.620;2022-07-29T11:25:22;4.80;;;3.10;;
22677;SDS011;26259;50.214;18.620;2022-07-29T11:27:48;5.10;;;2.92;;
22677;SDS011;26259;50.214;18.620;2022-07-29T11:30:14;7.20;;;2.92;;
22677;SDS011;26259;50.214;18.620;2022-07-29T11:32:43;4.68;;;2.78;;
22677;SDS011;26259;50.214;18.620;2022-07-29T11:43:51;7.45;;;2.60;;
22677;SDS011;26259;50.214;18.620;2022-07-29T11:46:41;5.40;;;2.90;;
22677;SDS011;26259;50.214;18.620;2022-07-29T11:49:09;4.55;;;2.60;;
22677;SDS011;26259;50.214;18.620;2022-07-29T11:51:38;7.50;;;2.88;;
22677;SDS011;26259;50.214;18.620;2022-07-29T11:54:04;8.32;;;3.10;;
22677;SDS011;26259;50.214;18.620;2022-07-29T11:56:32;7.88;;;3.25;;
22677;SDS011;26259;50.214;18.620;2022-07-29T11:59:02;6.97;;;3.50;;
22677;SDS011;26259;50.214;18.620;2022-07-29T12:01:29;7.07;;;2.97;;
22677;SDS011;26259;50.214;18.620;2022-07-29T12:04:04;7.55;;;3.15;;
22677;SDS011;26259;50.214;18.620;2022-07-29T12:06:31;3.75;;;2.80;;
22677;SDS011;26259;50.214;18.620;2022-07-29T12:08:58;6.05;;;2.92;;
22677;SDS011;26259;50.214;18.620;2022-07-29T12:11:23;9.68;;;3.40;;
22677;SDS011;26259;50.214;18.620;2022-07-29T12:13:50;6.05;;;2.72;;
22677;SDS011;26259;50.214;18.620;2022-07-29T12:16:16;6.95;;;3.05;;
22677;SDS011;26259;50.214;18.620;2022-07-29T12:18:42;9.13;;;3.03;;
22677;SDS011;26259;50.214;18.620;2022-07-29T12:21:19;7.25;;;3.05;;
22677;SDS011;26259;50.214;18.620;2022-07-29T12:23:51;14.82;;;3.72;;
22677;SDS011;26259;50.214;18.620;2022-07-29T12:26:19;6.85;;;2.70;;
22677;SDS011;26259;50.214;18.620;2022-07-29T12:28:44;5.70;;;2.67;;
22677;SDS011;26259;50.214;18.620;2022-07-29T12:31:13;7.63;;;2.85;;
22677;SDS011;26259;50.214;18.620;2022-07-29T12:33:40;10.27;;;2.53;;
22677;SDS011;26259;50.214;18.620;2022-07-29T12:36:05;8.13;;;2.95;;
22677;SDS011;26259;50.214;18.620;2022-07-29T12:38:32;7.43;;;2.90;;
22677;SDS011;26259;50.214;18.620;2022-07-29T12:40:59;7.43;;;2.70;;
22677;SDS011;26259;50.214;18.620;2022-07-29T12:43:25;4.85;;;2.40;;
22677;SDS011;26259;50.214;18.620;2022-07-29T12:45:51;6.60;;;3.15;;
22677;SDS011;26259;50.214;18.620;2022-07-29T12:48:32;8.10;;;2.53;;
22677;SDS011;26259;50.214;18.620;2022-07-29T12:50:59;7.72;;;2.80;;
22677;SDS011;26259;50.214;18.620;2022-07-29T12:53:26;11.52;;;3.20;;
22677;SDS011;26259;50.214;18.620;2022-07-29T12:55:53;7.78;;;2.85;;
22677;SDS011;26259;50.214;18.620;2022-07-29T12:58:39;5.03;;;2.50;;
22677;SDS011;26259;50.214;18.620;2022-07-29T13:01:10;7.97;;;2.58;;
22677;SDS011;26259;50.214;18.620;2022-07-29T13:03:43;4.70;;;2.80;;
22677;SDS011;26259;50.214;18.620;2022-07-29T13:06:26;12.23;;;2.58;;
22677;SDS011;26259;50.214;18.620;2022-07-29T13:09:14;3.20;;;2.35;;
22677;SDS011;26259;50.214;18.620;2022-07-29T13:11:45;4.97;;;2.75;;
22677;SDS011;26259;50.214;18.620;2022-07-29T13:14:29;5.75;;;2.70;;
22677;SDS011;26259;50.214;18.620;2022-07-29T13:17:08;10.93;;;4.00;;
22677;SDS011;26259;50.214;18.620;2022-07-29T13:19:44;6.47;;;3.15;;
22677;SDS011;26259;50.214;18.620;2022-07-29T13:22:14;5.38;;;3.20;;
22677;SDS011;26259;50.214;18.620;2022-07-29T13:24:59;7.88;;;2.67;;
22677;SDS011;26259;50.214;18.620;2022-07-29T13:27:29;9.35;;;3.10;;
22677;SDS011;26259;50.214;18.620;2022-07-29T13:29:57;12.55;;;3.60;;
22677;SDS011;26259;50.214;18.620;2022-07-29T13:32:25;13.20;;;2.95;;
22677;SDS011;26259;50.214;18.620;2022-07-29T13:34:52;5.85;;;2.92;;
22677;SDS011;26259;50.214;18.620;2022-07-29T13:37:18;11.50;;;3.47;;
22677;SDS011;26259;50.214;18.620;2022-07-29T13:39:44;10.25;;;2.70;;
22677;SDS011;26259;50.214;18.620;2022-07-29T13:42:10;14.35;;;3.45;;
22677;SDS011;26259;50.214;18.620;2022-07-29T13:44:38;7.28;;;3.13;;
22677;SDS011;26259;50.214;18.620;2022-07-29T13:47:05;7.70;;;3.20;;
22677;SDS011;26259;50.214;18.620;2022-07-29T13:49:32;4.55;;;2.85;;
22677;SDS011;26259;50.214;18.620;2022-07-29T13:51:58;8.23;;;3.25;;
22677;SDS011;26259;50.214;18.620;2022-07-29T13:54:23;7.53;;;2.95;;
22677;SDS011;26259;50.214;18.620;2022-07-29T13:56:49;7.03;;;3.13;;
22677;SDS011;26259;50.214;18.620;2022-07-29T13:59:15;7.22;;;3.22;;
22677;SDS011;26259;50.214;18.620;2022-07-29T14:01:41;8.02;;;3.22;;
22677;SDS011;26259;50.214;18.620;2022-07-29T14:04:07;7.32;;;3.10;;
22677;SDS011;26259;50.214;18.620;2022-07-29T14:06:33;10.15;;;3.30;;
22677;SDS011;26259;50.214;18.620;2022-07-29T14:08:58;8.15;;;2.92;;
22677;SDS011;26259;50.214;18.620;2022-07-29T14:11:24;4.03;;;2.90;;
22677;SDS011;26259;50.214;18.620;2022-07-29T14:13:50;10.05;;;2.85;;
22677;SDS011;26259;50.214;18.620;2022-07-29T14:16:15;9.38;;;2.97;;
22677;SDS011;26259;50.214;18.620;2022-07-29T14:18:41;14.40;;;3.70;;
22677;SDS011;26259;50.214;18.620;2022-07-29T14:21:07;13.85;;;3.33;;
22677;SDS011;26259;50.214;18.620;2022-07-29T14:23:33;7.25;;;2.95;;
22677;SDS011;26259;50.214;18.620;2022-07-29T14:25:58;11.38;;;3.20;;
22677;SDS011;26259;50.214;18.620;2022-07-29T14:28:24;8.32;;;2.88;;
22677;SDS011;26259;50.214;18.620;2022-07-29T14:30:49;6.78;;;2.60;;
22677;SDS011;26259;50.214;18.620;2022-07-29T14:33:15;6.60;;;3.10;;
22677;SDS011;26259;50.214;18.620;2022-07-29T14:35:41;7.50;;;2.75;;
22677;SDS011;26259;50.214;18.620;2022-07-29T14:38:06;10.60;;;3.03;;
22677;SDS011;26259;50.214;18.620;2022-07-29T14:40:32;10.90;;;2.55;;
22677;SDS011;26259;50.214;18.620;2022-07-29T14:42:57;10.02;;;3.00;;
22677;SDS011;26259;50.214;18.620;2022-07-29T14:45:23;10.85;;;2.83;;
22677;SDS011;26259;50.214;18.620;2022-07-29T14:47:49;6.90;;;4.45;;
22677;SDS011;26259;50.214;18.620;2022-07-29T14:50:15;7.40;;;2.88;;
22677;SDS011;26259;50.214;18.620;2022-07-29T14:52:41;8.15;;;2.63;;
22677;SDS011;26259;50.214;18.620;2022-07-29T14:55:07;9.77;;;3.08;;
22677;SDS011;26259;50.214;18.620;2022-07-29T14:57:33;5.47;;;2.50;;
22677;SDS011;26259;50.214;18.620;2022-07-29T14:59:59;19.10;;;3.25;;
22677;SDS011;26259;50.214;18.620;2022-07-29T15:02:24;8.70;;;3.00;;
22677;SDS011;26259;50.214;18.620;2022-07-29T15:04:50;8.40;;;2.65;;
22677;SDS011;26259;50.214;18.620;2022-07-29T15:07:16;5.20;;;2.85;;
22677;SDS011;26259;50.214;18.620;2022-07-29T15:09:42;9.45;;;3.05;;
22677;SDS011;26259;50.214;18.620;2022-07-29T15:12:07;9.18;;;2.85;;
22677;SDS011;26259;50.214;18.620;2022-07-29T15:14:35;6.30;;;2.83;;
22677;SDS011;26259;50.214;18.620;2022-07-29T15:17:01;5.50;;;2.58;;
22677;SDS011;26259;50.214;18.620;2022-07-29T15:19:26;9.20;;;3.20;;
22677;SDS011;26259;50.214;18.620;2022-07-29T15:21:52;7.40;;;3.40;;
22677;SDS011;26259;50.214;18.620;2022-07-29T15:24:18;4.50;;;2.78;;